createdAt,value
2023-02-27T00:02:11.641Z,4.50
2023-02-27T00:04:38.055Z,4.59
2023-02-27T00:07:04.604Z,4.66
2023-02-27T00:09:31.070Z,4.59
2023-02-27T00:11:57.528Z,4.51
2023-02-27T00:14:24.019Z,4.44
2023-02-27T00:16:50.712Z,4.38
2023-02-27T00:19:17.182Z,4.37
2023-02-27T00:21:44.637Z,4.47
2023-02-27T00:24:11.664Z,4.51
2023-02-27T00:26:38.216Z,4.60
2023-02-27T00:29:06.262Z,4.64
2023-02-27T00:31:33.105Z,4.61
2023-02-27T00:33:59.552Z,4.59
2023-02-27T00:36:26.101Z,4.61
2023-02-27T00:38:52.594Z,4.64
2023-02-27T00:41:19.047Z,4.64
2023-02-27T00:43:45.482Z,4.70
2023-02-27T00:46:12.054Z,4.68
2023-02-27T00:48:38.523Z,4.64
2023-02-27T00:51:05.121Z,4.55
2023-02-27T00:53:31.598Z,4.53
2023-02-27T00:55:57.975Z,4.45
2023-02-27T00:58:24.422Z,4.43
2023-02-27T01:00:50.869Z,4.35
2023-02-27T01:03:17.312Z,4.33
2023-02-27T01:05:43.783Z,4.28
2023-02-27T01:08:10.230Z,4.21
2023-02-27T01:10:36.838Z,4.27
2023-02-27T01:13:03.417Z,4.35
2023-02-27T01:15:29.857Z,4.43
2023-02-27T01:17:56.256Z,4.40
2023-02-27T01:20:22.853Z,4.48
2023-02-27T01:22:49.290Z,4.49
2023-02-27T01:25:15.826Z,4.48
2023-02-27T01:27:42.265Z,4.49
2023-02-27T01:30:11.417Z,4.42
2023-02-27T01:32:38.225Z,4.34
2023-02-27T01:35:05.097Z,4.38
2023-02-27T01:37:31.514Z,4.38
2023-02-27T01:39:58.007Z,4.35
2023-02-27T01:42:27.711Z,4.36
2023-02-27T01:45:12.339Z,4.40
2023-02-27T01:47:42.163Z,4.38
2023-02-27T01:50:10.410Z,4.35
2023-02-27T01:52:38.773Z,4.25
2023-02-27T01:55:08.333Z,4.25
2023-02-27T01:57:36.105Z,4.33
2023-02-27T02:00:04.382Z,4.31
2023-02-27T02:02:37.392Z,4.31
2023-02-27T02:05:06.856Z,4.30
2023-02-27T02:07:34.883Z,4.26
2023-02-27T02:10:02.298Z,4.25
2023-02-27T02:12:33.882Z,4.21
2023-02-27T02:15:00.202Z,4.25
2023-02-27T02:18:05.142Z,4.18
2023-02-27T02:21:09.172Z,4.25
2023-02-27T02:24:03.614Z,4.33
2023-02-27T02:26:33.248Z,4.31
2023-02-27T02:29:24.211Z,4.24
2023-02-27T02:32:31.179Z,4.17
2023-02-27T02:35:15.838Z,4.13
2023-02-27T02:38:00.510Z,4.13
2023-02-27T02:40:45.087Z,4.12
2023-02-27T02:43:26.365Z,4.17
2023-02-27T02:46:13.455Z,4.20
2023-02-27T02:48:47.031Z,4.12
2023-02-27T02:51:27.316Z,4.04
2023-02-27T02:54:20.580Z,3.94
2023-02-27T02:57:12.952Z,3.85
2023-02-27T02:59:55.834Z,3.87
2023-02-27T03:02:27.494Z,3.88
2023-02-27T03:04:59.410Z,3.92
2023-02-27T03:07:44.332Z,3.80
2023-02-27T03:10:16.408Z,3.83
2023-02-27T03:12:50.162Z,3.75
2023-02-27T03:15:28.250Z,3.73
2023-02-27T03:18:18.761Z,3.67
2023-02-27T03:20:51.477Z,3.59
2023-02-27T03:23:23.379Z,3.67
2023-02-27T03:25:51.552Z,3.69
2023-02-27T03:28:23.634Z,3.52
2023-02-27T03:30:56.345Z,3.52
2023-02-27T03:33:38.592Z,3.44
2023-02-27T03:36:14.799Z,3.45
2023-02-27T03:38:48.262Z,3.43
2023-02-27T03:41:27.849Z,3.43
2023-02-27T03:43:57.274Z,3.44
2023-02-27T03:46:26.444Z,3.41
2023-02-27T03:48:53.020Z,3.42
2023-02-27T03:51:22.368Z,3.33
2023-02-27T03:53:54.655Z,3.27
2023-02-27T03:56:27.288Z,3.22
2023-02-27T03:58:54.095Z,3.18
2023-02-27T04:01:20.671Z,3.21
2023-02-27T04:03:54.467Z,3.22
2023-02-27T04:06:39.400Z,3.20
2023-02-27T04:09:30.493Z,3.23
2023-02-27T04:12:10.775Z,3.19
2023-02-27T04:14:53.290Z,3.21
2023-02-27T04:17:29.533Z,3.14
2023-02-27T04:20:13.411Z,3.12
2023-02-27T04:22:39.879Z,3.17
2023-02-27T04:25:29.578Z,3.16
2023-02-27T04:28:10.286Z,3.14
2023-02-27T04:30:49.000Z,3.09
2023-02-27T04:33:30.633Z,3.08
2023-02-27T04:36:07.653Z,3.08
2023-02-27T04:39:01.770Z,3.09
2023-02-27T04:41:52.192Z,3.08
2023-02-27T04:44:21.100Z,3.06
2023-02-27T04:46:48.723Z,3.08
2023-02-27T04:49:27.792Z,3.09
2023-02-27T04:52:04.048Z,3.14
2023-02-27T04:54:39.860Z,3.20
2023-02-27T04:57:10.828Z,3.17
2023-02-27T04:59:45.285Z,3.15
2023-02-27T05:02:24.648Z,3.16
2023-02-27T05:04:56.723Z,3.33
2023-02-27T05:07:29.215Z,3.40
2023-02-27T05:10:02.365Z,3.44
2023-02-27T05:12:50.668Z,3.35
2023-02-27T05:15:20.714Z,3.27
2023-02-27T05:18:10.430Z,3.14
2023-02-27T05:21:01.887Z,3.13
2023-02-27T05:24:02.323Z,3.01
2023-02-27T05:27:06.046Z,2.95
2023-02-27T05:29:41.030Z,2.93
2023-02-27T05:32:20.395Z,2.91
2023-02-27T05:34:54.311Z,2.96
2023-02-27T05:37:28.834Z,2.96
2023-02-27T05:39:55.273Z,3.04
2023-02-27T05:42:29.523Z,3.01
2023-02-27T05:45:04.007Z,3.00
2023-02-27T05:47:34.331Z,2.98
2023-02-27T05:50:13.215Z,3.04
2023-02-27T05:52:41.326Z,2.98
2023-02-27T05:55:24.445Z,2.86
2023-02-27T05:58:02.022Z,2.84
2023-02-27T06:00:31.400Z,2.90
2023-02-27T06:02:58.040Z,2.84
2023-02-27T06:05:25.800Z,2.90
2023-02-27T06:07:52.214Z,2.92
2023-02-27T06:10:20.752Z,2.93
2023-02-27T06:12:47.455Z,3.01
2023-02-27T06:15:13.971Z,2.95
2023-02-27T06:17:40.519Z,2.88
2023-02-27T06:20:08.001Z,2.87
2023-02-27T06:22:34.939Z,2.87
2023-02-27T06:25:01.773Z,2.97
2023-02-27T06:27:28.571Z,3.00
2023-02-27T06:29:55.060Z,2.96
2023-02-27T06:32:21.999Z,3.00
2023-02-27T06:34:48.473Z,2.87
2023-02-27T06:37:15.041Z,3.04
2023-02-27T06:39:41.471Z,3.21
2023-02-27T06:42:08.049Z,3.34
2023-02-27T06:44:34.670Z,3.30
2023-02-27T06:47:01.144Z,3.34
2023-02-27T06:49:27.648Z,3.42
2023-02-27T06:51:54.068Z,3.40
2023-02-27T06:54:20.570Z,3.21
2023-02-27T06:56:47.921Z,3.13
2023-02-27T06:59:14.558Z,3.11
2023-02-27T07:01:41.011Z,3.08
2023-02-27T07:04:08.795Z,3.09
2023-02-27T07:07:35.108Z,3.22
2023-02-27T07:09:23.160Z,3.33
2023-02-27T07:11:50.321Z,3.42
2023-02-27T07:14:16.775Z,3.42
2023-02-27T07:16:43.665Z,3.31
2023-02-27T07:19:11.044Z,3.26
2023-02-27T07:21:37.637Z,3.21
2023-02-27T07:24:04.836Z,3.20
2023-02-27T07:26:31.504Z,3.25
2023-02-27T07:28:57.940Z,3.32
2023-02-27T07:31:24.668Z,3.30
2023-02-27T07:33:51.168Z,3.33
2023-02-27T07:36:17.923Z,3.31
2023-02-27T07:38:44.424Z,3.27
2023-02-27T07:41:21.295Z,3.34
2023-02-27T07:43:55.897Z,3.39
2023-02-27T07:46:24.058Z,3.43
2023-02-27T07:48:50.583Z,3.43
2023-02-27T07:51:17.051Z,3.45
2023-02-27T07:53:43.501Z,3.50
2023-02-27T07:56:09.994Z,3.52
2023-02-27T07:58:36.408Z,3.37
2023-02-27T08:01:02.982Z,3.35
2023-02-27T08:03:29.486Z,3.43
2023-02-27T08:05:55.905Z,3.45
2023-02-27T08:08:22.398Z,3.47
2023-02-27T08:10:50.057Z,3.53
2023-02-27T08:13:20.548Z,3.65
2023-02-27T08:15:47.395Z,3.58
2023-02-27T08:18:13.884Z,3.68
2023-02-27T08:20:40.354Z,3.77
2023-02-27T08:23:07.130Z,3.88
2023-02-27T08:25:33.644Z,3.89
2023-02-27T08:28:00.107Z,3.94
2023-02-27T08:30:26.543Z,4.10
2023-02-27T08:32:53.264Z,4.18
2023-02-27T08:35:19.941Z,4.21
2023-02-27T08:37:46.405Z,4.15
2023-02-27T08:40:13.396Z,4.21
2023-02-27T08:42:40.271Z,4.20
2023-02-27T08:45:07.532Z,4.38
2023-02-27T08:47:33.994Z,4.55
2023-02-27T08:50:00.540Z,4.55
2023-02-27T08:52:27.204Z,4.58
2023-02-27T08:54:53.914Z,4.55
2023-02-27T08:57:20.556Z,4.71
2023-02-27T08:59:46.996Z,4.78
2023-02-27T09:02:13.908Z,4.84
2023-02-27T09:04:40.852Z,4.87
2023-02-27T09:07:07.537Z,5.01
2023-02-27T09:09:33.961Z,4.93
2023-02-27T09:12:00.458Z,4.88
2023-02-27T09:14:26.914Z,4.90
2023-02-27T09:16:53.458Z,4.90
2023-02-27T09:19:20.592Z,4.98
2023-02-27T09:21:47.097Z,5.19
2023-02-27T09:24:20.437Z,5.24
2023-02-27T09:26:48.103Z,5.19
2023-02-27T09:29:15.044Z,5.21
2023-02-27T09:31:41.549Z,5.21
2023-02-27T09:34:08.065Z,5.26
2023-02-27T09:36:35.222Z,5.13
2023-02-27T09:39:01.650Z,5.24
2023-02-27T09:41:41.232Z,5.34
2023-02-27T09:44:47.000Z,5.34
2023-02-27T09:47:29.009Z,5.50
2023-02-27T09:50:03.059Z,5.42
2023-02-27T09:52:32.252Z,5.31
2023-02-27T09:54:59.095Z,5.30
2023-02-27T09:57:34.390Z,5.27
2023-02-27T10:00:07.239Z,5.30
2023-02-27T10:02:54.202Z,5.45
2023-02-27T10:05:52.720Z,5.44
2023-02-27T10:08:39.299Z,5.45
2023-02-27T10:11:14.781Z,5.50
2023-02-27T10:13:51.615Z,5.47
2023-02-27T10:16:21.556Z,5.55
2023-02-27T10:18:57.976Z,5.69
2023-02-27T10:21:36.641Z,5.68
2023-02-27T10:24:07.668Z,5.61
2023-02-27T10:26:40.176Z,5.63
2023-02-27T10:29:30.615Z,5.59
2023-02-27T10:32:10.395Z,5.54
2023-02-27T10:34:39.644Z,5.64
2023-02-27T10:37:06.957Z,5.76
2023-02-27T10:39:49.637Z,5.83
2023-02-27T10:42:18.134Z,5.83
2023-02-27T10:44:44.722Z,5.85
2023-02-27T10:47:15.587Z,5.93
2023-02-27T10:49:43.310Z,6.00
2023-02-27T10:52:13.336Z,5.98
2023-02-27T10:54:41.347Z,6.16
2023-02-27T10:57:35.688Z,6.10
2023-02-27T11:00:06.330Z,6.14
2023-02-27T11:02:39.615Z,6.02
2023-02-27T11:05:34.230Z,6.11
2023-02-27T11:08:30.898Z,6.28
2023-02-27T11:10:59.823Z,6.48
2023-02-27T11:13:33.203Z,6.76
2023-02-27T11:16:06.322Z,6.75
2023-02-27T11:18:34.547Z,6.76
2023-02-27T11:21:36.391Z,6.72
2023-02-27T11:24:04.243Z,6.75
2023-02-27T11:26:39.636Z,7.11
2023-02-27T11:29:14.809Z,7.02
2023-02-27T11:31:55.182Z,6.96
2023-02-27T11:34:36.224Z,7.29
2023-02-27T11:37:07.226Z,7.37
2023-02-27T11:39:35.128Z,7.44
2023-02-27T11:42:31.660Z,7.43
2023-02-27T11:45:05.118Z,7.48
2023-02-27T11:47:35.480Z,7.03
2023-02-27T11:50:31.140Z,7.35
2023-02-27T11:53:34.834Z,7.49
2023-02-27T11:56:03.541Z,7.17
2023-02-27T11:58:40.991Z,7.05
2023-02-27T12:01:16.750Z,6.93
2023-02-27T12:04:35.542Z,7.13
2023-02-27T12:07:12.015Z,7.44
2023-02-27T12:09:47.108Z,7.82
2023-02-27T12:12:21.400Z,7.63
2023-02-27T12:15:09.622Z,7.71
2023-02-27T12:17:44.881Z,7.83
2023-02-27T12:20:29.371Z,7.87
2023-02-27T12:22:56.417Z,7.65
2023-02-27T12:25:43.949Z,7.38
2023-02-27T12:28:23.791Z,7.29
2023-02-27T12:31:14.853Z,7.13
2023-02-27T12:34:02.469Z,7.18
2023-02-27T12:36:29.143Z,7.29
2023-02-27T12:38:55.673Z,7.40
2023-02-27T12:41:41.675Z,7.45
2023-02-27T12:44:36.969Z,7.49
2023-02-27T12:47:06.486Z,7.45
2023-02-27T12:49:51.592Z,7.60
2023-02-27T12:52:38.457Z,7.70
2023-02-27T12:55:04.820Z,7.69
2023-02-27T12:58:25.132Z,7.74
2023-02-27T13:00:59.927Z,7.42
2023-02-27T13:03:35.388Z,7.06
2023-02-27T13:06:30.140Z,7.24
2023-02-27T13:09:08.674Z,7.39
2023-02-27T13:11:54.116Z,7.42
2023-02-27T13:14:29.690Z,7.32
2023-02-27T13:17:02.964Z,7.25
2023-02-27T13:19:42.569Z,7.33
2023-02-27T13:22:20.064Z,7.11
2023-02-27T13:24:51.040Z,7.25
2023-02-27T13:27:37.366Z,7.37
2023-02-27T13:30:03.778Z,7.27
2023-02-27T13:32:43.593Z,7.39
2023-02-27T13:35:16.931Z,7.57
2023-02-27T13:37:50.991Z,7.57
2023-02-27T13:40:31.224Z,7.49
2023-02-27T13:43:01.949Z,7.46
2023-02-27T13:45:57.434Z,7.37
2023-02-27T13:48:41.263Z,7.42
2023-02-27T13:51:36.312Z,7.56
2023-02-27T13:54:14.997Z,7.54
2023-02-27T13:57:07.129Z,7.40
2023-02-27T13:59:39.654Z,7.24
2023-02-27T14:02:21.400Z,7.39
2023-02-27T14:04:52.662Z,7.62
2023-02-27T14:07:26.526Z,7.65
2023-02-27T14:10:03.259Z,7.66
2023-02-27T14:12:45.328Z,7.54
2023-02-27T14:15:18.492Z,7.47
2023-02-27T14:17:47.697Z,7.37
2023-02-27T14:20:17.907Z,7.30
2023-02-27T14:23:16.089Z,7.16
2023-02-27T14:25:49.683Z,7.15
2023-02-27T14:28:36.102Z,7.16
2023-02-27T14:31:08.711Z,7.28
2023-02-27T14:33:48.155Z,7.41
2023-02-27T14:36:21.747Z,7.48
2023-02-27T14:38:49.131Z,7.52
2023-02-27T14:41:15.562Z,7.58
2023-02-27T14:43:55.181Z,7.56
2023-02-27T14:46:31.075Z,7.51
2023-02-27T14:49:03.614Z,7.47
2023-02-27T14:51:35.988Z,7.57
2023-02-27T14:54:13.206Z,7.63
2023-02-27T14:56:40.415Z,7.66
2023-02-27T14:59:28.266Z,7.50
2023-02-27T15:01:56.994Z,7.29
2023-02-27T15:04:27.427Z,7.24
2023-02-27T15:06:56.140Z,7.26
2023-02-27T15:09:33.787Z,7.30
2023-02-27T15:12:04.371Z,7.29
2023-02-27T15:14:36.195Z,7.37
2023-02-27T15:17:03.570Z,7.50
2023-02-27T15:19:30.789Z,7.47
2023-02-27T15:22:02.337Z,7.47
2023-02-27T15:24:43.857Z,7.47
2023-02-27T15:27:19.294Z,7.47
2023-02-27T15:29:51.427Z,7.49
2023-02-27T15:32:38.049Z,7.55
2023-02-27T15:35:26.987Z,7.56
2023-02-27T15:37:59.420Z,7.57
2023-02-27T15:40:32.971Z,7.52
2023-02-27T15:43:01.481Z,7.32
2023-02-27T15:45:33.073Z,7.28
2023-02-27T15:47:59.917Z,7.26
2023-02-27T15:50:31.454Z,7.25
2023-02-27T15:53:17.114Z,7.23
2023-02-27T15:55:49.303Z,7.26
2023-02-27T15:58:27.621Z,7.29
2023-02-27T16:01:07.703Z,7.32
2023-02-27T16:03:38.403Z,7.40
2023-02-27T16:06:31.711Z,7.47
2023-02-27T16:09:01.822Z,7.48
2023-02-27T16:11:31.240Z,7.45
2023-02-27T16:13:58.275Z,7.47
2023-02-27T16:16:28.116Z,7.45
2023-02-27T16:18:57.721Z,7.47
2023-02-27T16:21:26.787Z,7.44
2023-02-27T16:23:54.714Z,7.46
2023-02-27T16:26:27.619Z,7.52
2023-02-27T16:29:02.442Z,7.56
2023-02-27T16:31:35.248Z,7.60
2023-02-27T16:34:14.891Z,7.52
2023-02-27T16:36:43.138Z,7.40
2023-02-27T16:39:13.333Z,7.29
2023-02-27T16:41:39.807Z,7.20
2023-02-27T16:44:06.266Z,7.07
2023-02-27T16:46:32.880Z,7.02
2023-02-27T16:49:04.507Z,6.93
2023-02-27T16:51:37.604Z,6.82
2023-02-27T16:54:04.476Z,6.80
2023-02-27T16:56:38.231Z,6.75
2023-02-27T16:59:15.726Z,6.76
2023-02-27T17:01:42.211Z,6.65
2023-02-27T17:04:19.621Z,6.64
2023-02-27T17:06:51.888Z,6.66
2023-02-27T17:09:18.545Z,6.66
2023-02-27T17:11:45.049Z,6.67
2023-02-27T17:14:11.584Z,6.65
2023-02-27T17:16:38.392Z,6.61
2023-02-27T17:19:04.949Z,6.58
2023-02-27T17:21:31.611Z,6.51
2023-02-27T17:23:58.073Z,6.48
2023-02-27T17:26:24.755Z,6.46
2023-02-27T17:28:51.232Z,6.43
2023-02-27T17:31:22.827Z,6.47
2023-02-27T17:33:50.910Z,6.49
2023-02-27T17:36:17.919Z,6.47
2023-02-27T17:38:44.467Z,6.54
2023-02-27T17:41:12.880Z,6.53
2023-02-27T17:43:41.460Z,6.48
2023-02-27T17:46:10.249Z,6.46
2023-02-27T17:48:38.527Z,6.49
2023-02-27T17:51:06.768Z,6.66
2023-02-27T17:53:34.978Z,6.54
2023-02-27T17:56:01.523Z,6.47
2023-02-27T17:58:28.101Z,6.52
2023-02-27T18:00:54.618Z,6.43
2023-02-27T18:03:21.192Z,6.40
2023-02-27T18:05:52.192Z,6.31
2023-02-27T18:08:19.683Z,6.29
2023-02-27T18:10:47.938Z,6.25
2023-02-27T18:13:15.921Z,6.18
2023-02-27T18:15:42.625Z,6.16
2023-02-27T18:18:09.460Z,6.16
2023-02-27T18:20:36.533Z,6.14
2023-02-27T18:23:03.907Z,6.21
2023-02-27T18:25:30.826Z,6.25
2023-02-27T18:27:57.394Z,6.30
2023-02-27T18:30:24.181Z,6.32
2023-02-27T18:32:50.732Z,6.38
2023-02-27T18:35:17.234Z,6.45
2023-02-27T18:37:43.928Z,6.43
2023-02-27T18:40:11.968Z,6.44
2023-02-27T18:42:38.550Z,6.39
2023-02-27T18:45:05.610Z,6.39
2023-02-27T18:47:32.186Z,6.32
2023-02-27T18:49:58.768Z,6.38
2023-02-27T18:52:25.468Z,6.37
2023-02-27T18:54:51.963Z,6.39
2023-02-27T18:57:18.967Z,6.42
2023-02-27T18:59:47.495Z,6.35
2023-02-27T19:02:15.516Z,6.24
2023-02-27T19:04:42.094Z,6.21
2023-02-27T19:07:08.622Z,6.22
2023-02-27T19:09:35.099Z,6.18
2023-02-27T19:12:01.632Z,6.13
2023-02-27T19:14:28.165Z,6.12
2023-02-27T19:16:56.566Z,6.09
2023-02-27T19:19:23.103Z,6.04
2023-02-27T19:21:49.610Z,6.01
2023-02-27T19:24:19.152Z,6.06
2023-02-27T19:26:45.712Z,6.10
2023-02-27T19:29:12.194Z,6.12
2023-02-27T19:31:38.775Z,6.19
2023-02-27T19:34:05.652Z,6.16
2023-02-27T19:36:34.539Z,6.17
2023-02-27T19:39:02.001Z,6.11
2023-02-27T19:41:28.538Z,6.12
2023-02-27T19:43:55.842Z,6.16
2023-02-27T19:46:25.487Z,6.18
2023-02-27T19:48:55.631Z,6.13
2023-02-27T19:51:22.188Z,6.03
2023-02-27T19:53:48.792Z,6.00
2023-02-27T19:56:21.179Z,5.97
2023-02-27T19:58:48.793Z,5.96
2023-02-27T20:01:27.009Z,6.05
2023-02-27T20:03:55.936Z,6.01
2023-02-27T20:06:24.438Z,6.03
2023-02-27T20:08:52.420Z,5.99
2023-02-27T20:11:20.882Z,5.99
2023-02-27T20:13:51.540Z,5.94
2023-02-27T20:16:22.218Z,5.95
2023-02-27T20:18:49.066Z,5.95
2023-02-27T20:21:18.786Z,6.01
2023-02-27T20:23:46.513Z,6.11
2023-02-27T20:26:23.818Z,6.06
2023-02-27T20:28:52.180Z,6.02
2023-02-27T20:31:21.227Z,6.08
2023-02-27T20:33:49.179Z,6.03
2023-02-27T20:36:16.451Z,5.99
2023-02-27T20:38:43.316Z,5.96
2023-02-27T20:41:13.249Z,6.00
2023-02-27T20:43:42.868Z,5.95
2023-02-27T20:46:12.531Z,5.86
2023-02-27T20:48:39.234Z,5.81
2023-02-27T20:51:16.379Z,5.83
2023-02-27T20:53:45.360Z,5.78
2023-02-27T20:56:12.313Z,5.77
2023-02-27T20:58:39.590Z,5.70
2023-02-27T21:01:13.762Z,5.76
2023-02-27T21:03:42.024Z,5.81
2023-02-27T21:06:10.829Z,5.85
2023-02-27T21:08:39.126Z,5.85
2023-02-27T21:11:08.336Z,5.81
2023-02-27T21:13:36.228Z,5.78
2023-02-27T21:16:04.506Z,5.84
2023-02-27T21:18:31.314Z,5.76
2023-02-27T21:21:02.615Z,5.78
2023-02-27T21:23:29.105Z,5.79
2023-02-27T21:25:55.565Z,5.74
2023-02-27T21:28:22.162Z,5.75
2023-02-27T21:30:48.659Z,5.65
2023-02-27T21:33:15.173Z,5.66
2023-02-27T21:35:46.015Z,5.74
2023-02-27T21:38:12.592Z,5.74
2023-02-27T21:40:39.134Z,5.75
2023-02-27T21:43:05.649Z,5.73
2023-02-27T21:45:32.105Z,5.72
2023-02-27T21:47:58.555Z,5.68
2023-02-27T21:50:25.003Z,5.64
2023-02-27T21:52:51.559Z,5.62
2023-02-27T21:55:18.064Z,5.63
2023-02-27T21:57:44.511Z,5.59
2023-02-27T22:00:11.982Z,5.61
2023-02-27T22:02:39.527Z,5.65
2023-02-27T22:05:06.924Z,5.63
2023-02-27T22:07:33.412Z,5.60
2023-02-27T22:09:59.906Z,5.60
2023-02-27T22:12:27.023Z,5.61
2023-02-27T22:14:53.476Z,5.58
2023-02-27T22:17:20.176Z,5.51
2023-02-27T22:19:47.859Z,5.48
2023-02-27T22:22:14.520Z,5.47
2023-02-27T22:24:42.010Z,5.46
2023-02-27T22:27:09.329Z,5.49
2023-02-27T22:29:37.963Z,5.53
2023-02-27T22:32:06.392Z,5.55
2023-02-27T22:34:32.963Z,5.57
2023-02-27T22:36:59.522Z,5.49
2023-02-27T22:39:25.940Z,5.44
2023-02-27T22:41:52.641Z,5.46
2023-02-27T22:44:19.067Z,5.42
2023-02-27T22:46:48.623Z,5.33
2023-02-27T22:49:21.025Z,5.36
2023-02-27T22:51:50.764Z,5.38
2023-02-27T22:54:18.696Z,5.41
2023-02-27T22:56:45.199Z,5.28
2023-02-27T22:59:11.750Z,5.29
2023-02-27T23:01:38.551Z,5.34
2023-02-27T23:04:08.235Z,5.39
2023-02-27T23:06:39.971Z,5.26
2023-02-27T23:09:08.642Z,5.34
2023-02-27T23:11:35.322Z,5.33
2023-02-27T23:14:01.840Z,5.22
2023-02-27T23:16:28.459Z,5.10
2023-02-27T23:18:58.783Z,5.17
2023-02-27T23:21:34.414Z,5.22
2023-02-27T23:24:05.877Z,5.28
2023-02-27T23:26:35.465Z,5.32
2023-02-27T23:29:02.164Z,5.28
2023-02-27T23:31:29.169Z,5.31
2023-02-27T23:33:56.118Z,5.31
2023-02-27T23:36:22.554Z,5.27
2023-02-27T23:38:49.023Z,5.22
2023-02-27T23:41:20.683Z,5.18
2023-02-27T23:43:47.964Z,5.07
2023-02-27T23:46:15.928Z,5.12
2023-02-27T23:48:42.951Z,5.07
2023-02-27T23:51:11.143Z,5.12
2023-02-27T23:53:41.294Z,5.03
2023-02-27T23:56:16.276Z,5.04
2023-02-27T23:58:43.811Z,5.05
